Time;durP1;ratioP1;P1;durP2;ratioP2;P2;SDS_P1;SDS_P2;PMS_P1;PMS_P2;Temp;Humidity;BMP_temperature;BMP_pressure;BME280_temperature;BME280_humidity;BME280_pressure;Samples;Min_cycle;Max_cycle;Signal;HPM_P1;HPM_P2
2021/01/03 00:00:19;;;;;;;130.77;66.80;;;2.60;93.80;;;;;;5075132;28;21074;-82
2021/01/03 00:03:01;;;;;;;143.90;70.13;;;2.60;93.80;;;;;;5072297;28;20206;-82
2021/01/03 00:05:31;;;;;;;148.80;71.87;;;2.60;93.80;;;;;;5063700;28;20315;-81
2021/01/03 00:08:00;;;;;;;151.67;72.63;;;2.60;93.80;;;;;;5074116;28;20674;-81
2021/01/03 00:10:30;;;;;;;145.43;69.93;;;2.60;93.80;;;;;;5070696;28;20571;-81
2021/01/03 00:12:59;;;;;;;141.27;69.07;;;2.50;93.70;;;;;;5069678;28;20201;-82
2021/01/03 00:15:29;;;;;;;141.27;68.47;;;2.60;93.70;;;;;;5097609;28;20219;-81
2021/01/03 00:17:56;;;;;;;143.57;68.00;;;2.60;93.70;;;;;;5073489;28;20247;-79
2021/01/03 00:20:26;;;;;;;145.43;72.10;;;2.60;93.70;;;;;;5063398;28;20239;-81
2021/01/03 00:22:55;;;;;;;151.03;72.13;;;2.60;93.70;;;;;;5067564;28;20203;-82
2021/01/03 00:25:25;;;;;;;146.10;71.07;;;2.60;93.70;;;;;;5058966;28;20228;-80
2021/01/03 00:27:54;;;;;;;145.30;70.43;;;2.50;93.70;;;;;;5058618;28;20205;-80
2021/01/03 00:30:24;;;;;;;148.93;70.40;;;2.50;93.70;;;;;;5074775;28;20405;-82
2021/01/03 00:32:53;;;;;;;144.40;71.63;;;2.50;93.70;;;;;;5059979;28;20285;-81
2021/01/03 00:35:22;;;;;;;142.97;68.00;;;2.50;93.70;;;;;;5078797;28;20216;-82
2021/01/03 00:37:50;;;;;;;146.80;70.53;;;2.50;93.70;;;;;;5077735;28;20202;-81
2021/01/03 00:40:21;;;;;;;138.30;69.97;;;2.50;93.70;;;;;;5066842;28;20200;-80
2021/01/03 00:42:49;;;;;;;147.73;71.30;;;2.50;93.70;;;;;;5063145;28;20299;-79
2021/01/03 00:45:17;;;;;;;148.50;69.30;;;2.60;93.70;;;;;;5088564;28;20235;-80
2021/01/03 00:47:46;;;;;;;136.20;67.17;;;2.50;93.70;;;;;;5093688;28;20262;-81
2021/01/03 00:50:14;;;;;;;137.97;68.97;;;2.50;93.70;;;;;;5080035;28;20540;-79
2021/01/03 00:52:41;;;;;;;144.47;70.97;;;2.50;93.60;;;;;;5080198;28;20653;-81
2021/01/03 00:55:10;;;;;;;161.63;74.07;;;2.50;93.60;;;;;;5068051;28;20205;-81
2021/01/03 00:57:38;;;;;;;186.33;86.20;;;2.50;93.70;;;;;;5066237;28;20236;-80
2021/01/03 01:00:10;;;;;;;182.10;93.07;;;2.50;93.60;;;;;;5068655;28;20499;-80
2021/01/03 01:02:37;;;;;;;187.43;87.73;;;2.50;93.60;;;;;;5079216;28;20197;-80
2021/01/03 01:05:07;;;;;;;179.63;86.17;;;2.50;93.60;;;;;;5065145;28;20650;-81
2021/01/03 01:07:34;;;;;;;178.67;86.13;;;2.50;93.60;;;;;;5069361;28;20525;-80
2021/01/03 01:10:02;;;;;;;174.47;81.80;;;2.50;93.60;;;;;;5065826;28;20499;-82
2021/01/03 01:12:29;;;;;;;161.70;79.53;;;2.40;93.60;;;;;;5060580;28;20209;-80
2021/01/03 01:14:57;;;;;;;158.00;72.90;;;2.40;93.60;;;;;;5077229;28;20198;-80
2021/01/03 01:17:24;;;;;;;158.33;74.30;;;2.40;93.60;;;;;;5070558;28;20201;-80
2021/01/03 01:19:52;;;;;;;154.10;75.40;;;2.30;93.60;;;;;;5066349;28;20482;-82
2021/01/03 01:22:20;;;;;;;163.60;75.00;;;2.30;93.60;;;;;;5083369;28;20200;-81
2021/01/03 01:24:48;;;;;;;174.80;80.70;;;2.30;93.60;;;;;;5079548;28;20645;-79
2021/01/03 01:27:15;;;;;;;171.03;79.80;;;2.30;93.50;;;;;;5068529;28;20209;-79
2021/01/03 01:29:43;;;;;;;174.07;84.47;;;2.20;93.50;;;;;;5068717;28;20200;-81
2021/01/03 01:32:10;;;;;;;180.83;86.80;;;2.30;93.50;;;;;;5068303;28;20199;-82
2021/01/03 01:34:38;;;;;;;172.77;86.40;;;2.40;93.50;;;;;;5067783;28;20745;-80
2021/01/03 01:37:05;;;;;;;177.20;81.27;;;2.20;93.50;;;;;;5083938;28;20193;-81
2021/01/03 01:39:34;;;;;;;165.27;80.47;;;2.20;93.50;;;;;;5071674;28;20555;-81
2021/01/03 01:42:02;;;;;;;167.90;81.77;;;2.20;93.50;;;;;;5072738;28;20509;-80
2021/01/03 01:44:29;;;;;;;165.60;78.93;;;2.10;93.40;;;;;;5073208;28;20831;-82
2021/01/03 01:47:05;;;;;;;162.37;76.90;;;2.20;93.40;;;;;;5079822;28;20562;-81
2021/01/03 01:49:39;;;;;;;155.93;74.20;;;2.10;93.40;;;;;;5065426;28;20205;-81
2021/01/03 01:52:07;;;;;;;156.03;75.50;;;2.20;93.40;;;;;;5072871;28;20196;-82
2021/01/03 01:54:39;;;;;;;153.77;72.67;;;2.20;93.40;;;;;;5077694;28;20725;-81
2021/01/03 01:57:13;;;;;;;160.27;80.70;;;2.20;93.40;;;;;;5071201;28;20221;-82
2021/01/03 01:59:44;;;;;;;176.77;82.20;;;2.20;93.40;;;;;;5076297;28;20274;-81
2021/01/03 02:02:18;;;;;;;147.20;71.33;;;2.20;93.40;;;;;;5082085;28;20211;-81
2021/01/03 02:04:53;;;;;;;158.90;75.43;;;2.20;93.40;;;;;;5086303;28;20209;-81
2021/01/03 02:07:27;;;;;;;159.03;78.10;;;2.20;93.40;;;;;;5073658;28;20196;-81
2021/01/03 02:10:08;;;;;;;167.50;84.17;;;2.20;93.40;;;;;;5071025;28;20661;-80
2021/01/03 02:12:41;;;;;;;151.87;67.93;;;2.20;93.40;;;;;;5081680;28;20352;-81
2021/01/03 02:15:11;;;;;;;172.13;87.47;;;2.30;93.40;;;;;;5107258;28;20191;-79
2021/01/03 02:17:39;;;;;;;175.77;88.03;;;2.20;93.40;;;;;;5094225;28;20224;-81
2021/01/03 02:20:09;;;;;;;168.93;80.30;;;2.20;93.40;;;;;;5065045;28;20442;-80
2021/01/03 02:22:42;;;;;;;178.63;82.37;;;2.20;93.40;;;;;;5090483;28;20557;-80
2021/01/03 02:25:14;;;;;;;169.17;80.03;;;2.20;93.40;;;;;;5082476;28;20249;-79
2021/01/03 02:27:50;;;;;;;148.47;77.07;;;2.20;93.40;;;;;;5064054;28;20779;-81
2021/01/03 02:30:19;;;;;;;163.37;78.37;;;2.20;93.40;;;;;;5078001;28;20273;-82
2021/01/03 02:32:50;;;;;;;149.03;70.70;;;2.20;93.40;;;;;;5071521;28;20213;-79
2021/01/03 02:35:19;;;;;;;145.63;69.37;;;2.10;93.30;;;;;;5078462;28;20200;-81
2021/01/03 02:37:52;;;;;;;129.60;69.93;;;2.20;93.40;;;;;;5085176;28;20199;-81
2021/01/03 02:40:23;;;;;;;139.23;69.83;;;2.10;93.30;;;;;;5064544;28;20580;-81
2021/01/03 02:42:50;;;;;;;132.33;63.43;;;2.10;93.30;;;;;;5083717;28;20232;-79
2021/01/03 02:45:22;;;;;;;136.80;68.30;;;2.20;93.40;;;;;;5082472;28;20224;-80
2021/01/03 02:47:50;;;;;;;141.77;69.73;;;2.20;93.30;;;;;;5073109;28;20313;-81
2021/01/03 02:50:22;;;;;;;143.17;70.47;;;2.20;93.30;;;;;;5061148;28;20225;-83
2021/01/03 02:52:50;;;;;;;145.43;70.30;;;2.20;93.40;;;;;;5072986;28;20391;-80
2021/01/03 02:55:18;;;;;;;133.60;68.00;;;2.10;93.30;;;;;;5069655;28;20220;-81
2021/01/03 02:57:47;;;;;;;135.70;67.50;;;2.10;93.30;;;;;;5071099;28;20200;-81
2021/01/03 03:00:20;;;;;;;134.53;67.30;;;2.10;93.30;;;;;;5071827;28;20210;-81
2021/01/03 03:02:48;;;;;;;133.23;65.83;;;2.10;93.30;;;;;;5066934;28;20348;-79
2021/01/03 03:05:17;;;;;;;138.97;69.33;;;2.10;93.30;;;;;;5078275;28;20680;-80
2021/01/03 03:07:44;;;;;;;139.07;67.30;;;2.00;93.30;;;;;;5068232;28;20197;-81
2021/01/03 03:10:12;;;;;;;139.17;68.73;;;2.00;93.40;;;;;;5067447;28;20209;-81
2021/01/03 03:12:39;;;;;;;145.20;70.43;;;1.90;93.30;;;;;;5072309;28;20198;-81
2021/01/03 03:15:10;;;;;;;137.57;67.93;;;1.90;93.30;;;;;;5061561;28;20208;-79
2021/01/03 03:17:38;;;;;;;147.27;71.40;;;1.90;93.30;;;;;;5068727;28;20197;-79
2021/01/03 03:20:08;;;;;;;139.40;69.80;;;1.90;93.30;;;;;;5058172;28;20276;-80
2021/01/03 03:22:36;;;;;;;141.63;70.77;;;1.80;93.30;;;;;;5069100;28;20207;-81
2021/01/03 03:25:06;;;;;;;145.83;72.53;;;1.80;93.30;;;;;;5079600;28;20217;-82
2021/01/03 03:27:35;;;;;;;164.00;80.13;;;1.70;93.20;;;;;;5067732;28;20735;-81
2021/01/03 03:30:04;;;;;;;183.70;83.13;;;1.70;93.20;;;;;;5064699;28;20269;-81
2021/01/03 03:32:33;;;;;;;169.50;81.00;;;1.70;93.20;;;;;;5058055;28;20737;-80
2021/01/03 03:35:01;;;;;;;166.37;79.27;;;1.80;93.20;;;;;;5063726;28;20189;-81
2021/01/03 03:37:28;;;;;;;153.43;73.33;;;1.90;93.20;;;;;;5065247;28;20197;-81
2021/01/03 03:39:56;;;;;;;167.60;76.37;;;2.00;93.20;;;;;;5088483;28;20178;-80
2021/01/03 03:42:23;;;;;;;155.57;74.17;;;1.80;93.20;;;;;;5082966;28;20213;-82
2021/01/03 03:44:51;;;;;;;143.40;68.73;;;1.80;93.20;;;;;;5089347;28;20270;-81
2021/01/03 03:47:18;;;;;;;149.93;72.57;;;1.90;93.20;;;;;;5070298;28;20605;-80
2021/01/03 03:49:48;;;;;;;149.10;68.53;;;1.80;93.20;;;;;;5062118;28;20210;-78
2021/01/03 03:52:15;;;;;;;132.30;59.33;;;1.80;93.20;;;;;;5083285;28;20249;-81
2021/01/03 03:54:43;;;;;;;152.70;69.67;;;1.80;93.20;;;;;;5090607;28;20243;-80
2021/01/03 03:57:14;;;;;;;144.70;68.97;;;1.80;93.10;;;;;;5069481;28;20200;-82
2021/01/03 03:59:41;;;;;;;134.40;62.47;;;1.90;93.20;;;;;;5069933;28;20196;-80
2021/01/03 04:02:09;;;;;;;135.10;62.80;;;1.90;93.20;;;;;;5067766;28;20213;-80
2021/01/03 04:04:37;;;;;;;140.37;66.27;;;1.90;93.10;;;;;;5073341;28;20218;-80
2021/01/03 04:07:06;;;;;;;139.43;67.43;;;1.90;93.10;;;;;;5069579;28;20317;-81
2021/01/03 04:09:33;;;;;;;132.23;63.03;;;1.90;93.10;;;;;;5057389;28;20744;-82
2021/01/03 04:12:01;;;;;;;139.10;64.50;;;1.90;93.10;;;;;;5080433;28;20196;-81
2021/01/03 04:14:28;;;;;;;140.43;68.30;;;1.90;93.10;;;;;;5067971;28;21023;-83
2021/01/03 04:16:57;;;;;;;140.80;69.40;;;2.00;93.10;;;;;;5069691;28;20192;-80
2021/01/03 04:19:27;;;;;;;142.87;65.60;;;1.90;93.10;;;;;;5078710;28;20284;-80
2021/01/03 04:21:56;;;;;;;138.13;65.43;;;1.90;93.10;;;;;;5066581;28;20240;-80
2021/01/03 04:24:26;;;;;;;131.93;66.70;;;1.90;93.10;;;;;;5063772;28;20463;-81
2021/01/03 04:26:56;;;;;;;133.13;65.47;;;1.90;93.10;;;;;;5098136;28;20238;-80
2021/01/03 04:29:24;;;;;;;141.87;66.07;;;1.90;93.10;;;;;;5072513;28;20273;-79
2021/01/03 04:31:56;;;;;;;129.67;64.10;;;1.90;93.20;;;;;;5061555;28;20296;-79
2021/01/03 04:34:25;;;;;;;129.97;64.07;;;1.90;93.10;;;;;;5073182;28;20800;-79
2021/01/03 04:36:53;;;;;;;127.33;63.50;;;1.90;93.10;;;;;;5073173;28;20589;-80
2021/01/03 04:39:22;;;;;;;134.80;62.50;;;1.90;93.10;;;;;;5071888;28;20223;-80
2021/01/03 04:41:59;;;;;;;122.13;62.37;;;1.90;93.10;;;;;;5080640;28;20680;-81
2021/01/03 04:44:33;;;;;;;123.80;63.13;;;1.90;93.10;;;;;;5073418;28;20240;-80
2021/01/03 04:47:04;;;;;;;129.47;59.33;;;1.90;93.10;;;;;;5080790;28;20193;-80
2021/01/03 04:49:40;;;;;;;128.20;61.00;;;2.00;93.10;;;;;;5074182;28;20838;-80
2021/01/03 04:52:52;;;;;;;124.50;62.67;;;1.90;93.10;;;;;;5075664;28;20208;-81
2021/01/03 04:55:22;;;;;;;116.07;59.20;;;2.00;93.10;;;;;;5084716;28;20479;-81
2021/01/03 04:58:03;;;;;;;123.93;60.70;;;2.00;93.10;;;;;;5086191;28;20204;-79
2021/01/03 05:00:35;;;;;;;107.07;56.47;;;2.00;93.10;;;;;;5083433;28;20200;-81
2021/01/03 05:03:48;;;;;;;125.73;60.70;;;2.00;93.10;;;;;;5102546;28;20203;-79
2021/01/03 05:06:19;;;;;;;105.80;54.33;;;2.00;93.10;;;;;;5056418;28;20229;-80
2021/01/03 05:08:49;;;;;;;109.80;56.27;;;2.00;93.10;;;;;;5084789;28;20185;-82
2021/01/03 05:11:21;;;;;;;105.40;55.67;;;2.00;93.10;;;;;;5101643;28;20486;-81
2021/01/03 05:14:09;;;;;;;100.23;51.53;;;2.00;93.10;;;;;;5073305;28;20209;-81
2021/01/03 05:16:37;;;;;;;103.90;52.47;;;2.00;93.10;;;;;;5089091;28;20193;-81
2021/01/03 05:19:06;;;;;;;97.47;50.07;;;2.10;93.10;;;;;;5090222;28;20261;-81
2021/01/03 05:21:47;;;;;;;103.80;55.10;;;2.00;93.10;;;;;;5075973;28;20381;-80
2021/01/03 05:24:14;;;;;;;100.90;54.30;;;2.00;93.10;;;;;;5081803;28;20197;-80
2021/01/03 05:26:42;;;;;;;102.83;52.70;;;2.00;93.10;;;;;;5077126;28;20616;-82
2021/01/03 05:29:20;;;;;;;97.47;51.37;;;2.00;93.10;;;;;;5068217;28;20198;-81
2021/01/03 05:31:56;;;;;;;98.53;54.33;;;2.00;93.10;;;;;;5071112;28;20569;-82
2021/01/03 05:34:32;;;;;;;95.77;53.17;;;2.00;93.10;;;;;;5078471;28;20246;-80
2021/01/03 05:37:06;;;;;;;98.73;53.77;;;2.00;93.20;;;;;;5063481;28;20504;-80
2021/01/03 05:39:35;;;;;;;101.33;54.00;;;2.00;93.20;;;;;;5077338;28;20303;-80
2021/01/03 05:42:21;;;;;;;103.97;54.53;;;2.00;93.20;;;;;;5098502;28;20188;-81
2021/01/03 05:44:59;;;;;;;106.23;52.70;;;1.90;93.20;;;;;;5018351;28;20241;-81
2021/01/03 05:47:30;;;;;;;99.93;53.23;;;1.90;93.20;;;;;;5068804;28;20661;-79
2021/01/03 05:50:14;;;;;;;97.63;53.93;;;1.80;93.20;;;;;;5060790;28;20202;-81
2021/01/03 05:52:50;;;;;;;89.87;49.13;;;1.80;93.20;;;;;;5070847;28;20287;-83
2021/01/03 05:55:23;;;;;;;94.43;52.10;;;1.70;93.20;;;;;;5081141;28;20208;-79
2021/01/03 05:58:18;;;;;;;91.90;49.37;;;1.80;93.20;;;;;;5067627;28;20205;-81
2021/01/03 06:00:47;;;;;;;88.23;48.83;;;1.80;93.10;;;;;;5064941;28;20262;-80
2021/01/03 06:03:28;;;;;;;88.07;49.27;;;1.80;93.20;;;;;;5071774;28;20206;-81
2021/01/03 06:06:01;;;;;;;100.20;51.37;;;1.80;93.20;;;;;;5062801;28;20266;-80
2021/01/03 06:08:32;;;;;;;90.37;50.17;;;1.80;93.20;;;;;;5060437;28;20569;-82
2021/01/03 06:11:12;;;;;;;96.63;50.73;;;1.80;93.20;;;;;;5071800;28;20251;-80
2021/01/03 06:13:47;;;;;;;95.60;51.27;;;1.70;93.20;;;;;;5070748;28;20208;-81
2021/01/03 06:16:16;;;;;;;100.87;52.73;;;1.60;93.20;;;;;;5082602;28;20197;-80
2021/01/03 06:18:47;;;;;;;100.87;54.10;;;1.60;93.20;;;;;;5081367;28;20196;-80
2021/01/03 06:21:24;;;;;;;102.63;52.60;;;1.60;93.10;;;;;;5077559;28;20201;-80
2021/01/03 06:24:09;;;;;;;99.70;53.23;;;1.60;93.20;;;;;;5075208;28;20273;-81
2021/01/03 06:26:40;;;;;;;87.50;47.67;;;1.60;93.10;;;;;;5065963;28;20610;-80
2021/01/03 06:29:17;;;;;;;95.20;50.77;;;1.70;93.20;;;;;;5078044;28;20631;-81
2021/01/03 06:32:18;;;;;;;94.60;48.03;;;1.80;93.20;;;;;;5080599;28;20674;-81
2021/01/03 06:34:53;;;;;;;89.93;49.17;;;1.80;93.20;;;;;;5082588;28;20192;-81
2021/01/03 06:37:34;;;;;;;91.57;50.40;;;1.90;93.20;;;;;;5087264;28;20213;-81
2021/01/03 06:40:08;;;;;;;80.30;46.03;;;1.80;93.20;;;;;;5077672;28;20197;-81
2021/01/03 06:43:07;;;;;;;88.53;48.17;;;1.90;93.20;;;;;;5078378;28;20722;-81
2021/01/03 06:46:13;;;;;;;85.40;47.60;;;1.90;93.20;;;;;;5069866;28;20225;-81
2021/01/03 06:48:57;;;;;;;77.33;42.37;;;1.90;93.20;;;;;;5067360;28;20593;-80
2021/01/03 06:51:40;;;;;;;88.97;48.03;;;1.90;93.20;;;;;;5069883;28;20196;-81
2021/01/03 06:54:38;;;;;;;83.30;47.23;;;1.90;93.20;;;;;;5074846;28;20200;-81
2021/01/03 06:57:20;;;;;;;85.23;49.13;;;1.90;93.20;;;;;;5070589;28;20250;-81
2021/01/03 07:00:15;;;;;;;72.13;41.73;;;1.90;93.20;;;;;;5077145;28;20211;-81
2021/01/03 07:02:47;;;;;;;82.97;44.77;;;1.90;93.30;;;;;;5063647;28;20276;-79
2021/01/03 07:05:17;;;;;;;80.30;45.20;;;1.90;93.30;;;;;;5066144;28;20229;-81
2021/01/03 07:07:57;;;;;;;73.37;42.07;;;1.90;93.30;;;;;;5074737;28;20197;-81
2021/01/03 07:10:37;;;;;;;79.93;46.13;;;2.00;93.30;;;;;;5076054;28;20192;-81
2021/01/03 07:13:37;;;;;;;80.20;46.33;;;2.00;93.30;;;;;;5070481;28;20204;-82
2021/01/03 07:16:32;;;;;;;75.07;43.13;;;2.00;93.40;;;;;;5077298;28;20205;-80
2021/01/03 07:19:05;;;;;;;78.00;44.30;;;2.00;93.40;;;;;;5088496;28;20193;-81
2021/01/03 07:21:44;;;;;;;78.63;46.40;;;2.00;93.40;;;;;;5076811;28;20220;-80
2021/01/03 07:25:03;;;;;;;78.70;44.73;;;2.10;93.40;;;;;;5068419;28;20211;-81
2021/01/03 07:27:34;;;;;;;64.93;36.00;;;2.10;93.50;;;;;;5008320;28;20701;-80
2021/01/03 07:30:32;;;;;;;70.10;40.80;;;2.10;93.50;;;;;;5005143;28;20203;-82
2021/01/03 07:33:10;;;;;;;59.07;35.47;;;2.10;93.50;;;;;;5055769;28;20212;-82
2021/01/03 07:35:40;;;;;;;60.23;33.67;;;2.20;93.60;;;;;;5076716;28;20200;-81
2021/01/03 07:38:25;;;;;;;71.37;42.83;;;2.20;93.70;;;;;;5067967;28;20211;-81
2021/01/03 07:41:05;;;;;;;68.33;42.83;;;2.20;93.70;;;;;;5061027;28;21058;-80
2021/01/03 07:43:57;;;;;;;74.50;45.20;;;2.10;93.70;;;;;;5065583;28;20264;-78
2021/01/03 07:46:46;;;;;;;69.33;42.37;;;2.10;93.80;;;;;;5061348;28;20583;-79
2021/01/03 07:49:32;;;;;;;71.67;43.93;;;2.10;93.80;;;;;;5072160;28;20574;-81
2021/01/03 07:52:01;;;;;;;69.57;42.07;;;2.10;93.80;;;;;;5068277;28;20547;-80
2021/01/03 07:54:30;;;;;;;70.00;43.07;;;2.10;93.80;;;;;;5075099;28;20215;-81
2021/01/03 07:56:57;;;;;;;74.67;42.97;;;2.10;93.80;;;;;;5071263;28;20304;-79
2021/01/03 07:59:25;;;;;;;73.67;43.13;;;2.10;93.80;;;;;;5071645;28;20189;-81
2021/01/03 08:01:54;;;;;;;68.93;41.83;;;2.20;93.80;;;;;;5082664;28;20196;-81
2021/01/03 08:04:27;;;;;;;65.83;37.43;;;2.20;93.80;;;;;;5085343;28;20208;-82
2021/01/03 08:07:03;;;;;;;73.70;42.63;;;2.20;93.80;;;;;;5071941;28;20649;-80
2021/01/03 08:09:32;;;;;;;48.73;30.50;;;2.20;93.80;;;;;;5074917;28;20192;-81
2021/01/03 08:12:15;;;;;;;56.17;33.90;;;2.30;93.90;;;;;;5091869;28;20273;-81
2021/01/03 08:14:45;;;;;;;63.70;40.83;;;2.20;93.90;;;;;;5084229;28;20197;-81
2021/01/03 08:17:26;;;;;;;65.13;40.70;;;2.20;93.90;;;;;;5078061;28;20574;-82
2021/01/03 08:19:53;;;;;;;71.53;42.60;;;2.30;93.90;;;;;;5082758;28;20201;-81
2021/01/03 08:22:26;;;;;;;70.97;39.80;;;2.30;93.90;;;;;;5080420;28;20205;-80
2021/01/03 08:24:57;;;;;;;65.87;40.70;;;2.40;93.90;;;;;;5081624;28;20323;-80
2021/01/03 08:27:33;;;;;;;59.13;38.37;;;2.40;93.90;;;;;;5072383;28;20197;-80
2021/01/03 08:30:07;;;;;;;66.30;39.00;;;2.40;93.90;;;;;;5070454;28;20201;-81
2021/01/03 08:32:39;;;;;;;58.77;33.80;;;2.50;94.00;;;;;;5062162;28;20213;-81
2021/01/03 08:35:10;;;;;;;63.50;36.50;;;2.40;94.00;;;;;;5071050;28;20354;-81
2021/01/03 08:37:42;;;;;;;64.90;39.87;;;2.40;94.00;;;;;;5065680;28;20259;-81
2021/01/03 08:40:20;;;;;;;63.83;39.67;;;2.40;94.00;;;;;;5079574;28;20217;-80
2021/01/03 08:42:55;;;;;;;64.53;38.27;;;2.50;94.00;;;;;;5076776;28;20276;-81
2021/01/03 08:45:29;;;;;;;61.77;39.10;;;2.50;94.00;;;;;;5069554;28;20224;-81
2021/01/03 08:48:01;;;;;;;29.37;18.23;;;2.50;94.00;;;;;;5076427;28;20594;-78
2021/01/03 08:50:31;;;;;;;58.77;36.57;;;2.50;94.00;;;;;;5070187;28;20193;-78
2021/01/03 08:53:01;;;;;;;59.43;37.80;;;2.50;94.00;;;;;;5074334;28;20204;-81
2021/01/03 08:55:31;;;;;;;56.27;33.70;;;2.50;94.00;;;;;;5078873;28;20219;-79
2021/01/03 08:58:01;;;;;;;61.30;37.73;;;2.60;94.00;;;;;;5072364;28;20211;-81
2021/01/03 09:00:33;;;;;;;49.70;29.87;;;2.60;94.00;;;;;;5061344;28;20737;-81
2021/01/03 09:03:02;;;;;;;55.80;34.00;;;2.70;94.00;;;;;;5075401;28;20196;-81
2021/01/03 09:05:33;;;;;;;55.57;35.03;;;2.70;94.00;;;;;;5070250;28;20231;-80
2021/01/03 09:08:04;;;;;;;52.50;32.83;;;2.70;94.00;;;;;;5060852;28;20197;-81
2021/01/03 09:10:36;;;;;;;54.80;34.67;;;2.70;94.00;;;;;;5065820;28;20196;-81
2021/01/03 09:13:07;;;;;;;45.97;26.67;;;2.70;94.00;;;;;;5070271;28;20508;-80
2021/01/03 09:15:40;;;;;;;55.97;33.03;;;2.70;93.90;;;;;;5066312;28;20205;-80
2021/01/03 09:18:24;;;;;;;50.77;31.90;;;2.70;93.90;;;;;;5085713;28;20205;-82
2021/01/03 09:21:02;;;;;;;46.33;29.50;;;2.70;93.90;;;;;;5065763;28;20561;-82
2021/01/03 09:23:31;;;;;;;55.90;35.60;;;2.70;93.90;;;;;;5071637;28;20196;-79
2021/01/03 09:26:02;;;;;;;50.83;32.43;;;2.70;93.90;;;;;;5089254;28;20687;-81
2021/01/03 09:28:33;;;;;;;52.63;33.47;;;2.70;93.90;;;;;;5075407;28;20287;-80
2021/01/03 09:31:17;;;;;;;49.80;31.77;;;2.80;93.80;;;;;;5088269;28;20241;-81
2021/01/03 09:33:49;;;;;;;47.83;31.03;;;2.80;93.80;;;;;;5063304;28;20204;-79
2021/01/03 09:36:43;;;;;;;50.17;32.77;;;2.80;93.80;;;;;;5079978;28;20272;-82
2021/01/03 09:39:42;;;;;;;47.27;31.57;;;2.80;93.70;;;;;;5085173;28;20909;-80
2021/01/03 09:42:37;;;;;;;47.50;32.30;;;2.80;93.70;;;;;;5083407;28;20190;-79
2021/01/03 09:45:21;;;;;;;52.23;32.83;;;2.80;93.70;;;;;;5079086;28;20223;-80
2021/01/03 09:47:50;;;;;;;45.43;32.13;;;2.90;93.80;;;;;;5082309;28;20305;-82
2021/01/03 09:50:30;;;;;;;50.17;30.97;;;2.90;93.60;;;;;;5074720;28;20200;-81
2021/01/03 09:53:09;;;;;;;47.50;30.13;;;2.90;93.60;;;;;;5063160;28;20716;-80
2021/01/03 09:55:48;;;;;;;38.90;24.43;;;2.90;93.40;;;;;;5078539;28;20552;-81
2021/01/03 09:58:21;;;;;;;47.63;31.33;;;2.90;93.40;;;;;;5086338;28;20220;-81
2021/01/03 10:00:57;;;;;;;44.73;30.20;;;3.00;93.50;;;;;;5080449;28;20216;-80
2021/01/03 10:03:35;;;;;;;43.33;30.47;;;3.20;93.50;;;;;;5080189;28;20205;-80
2021/01/03 10:06:17;;;;;;;48.50;30.30;;;3.10;93.50;;;;;;5083844;28;20221;-81
2021/01/03 10:08:46;;;;;;;45.83;31.50;;;3.00;93.40;;;;;;5064106;28;20198;-80
2021/01/03 10:11:29;;;;;;;39.67;25.37;;;3.20;93.30;;;;;;5082778;28;20193;-81
2021/01/03 10:14:00;;;;;;;40.30;29.87;;;3.20;93.10;;;;;;5079866;28;20195;-79
2021/01/03 10:16:29;;;;;;;43.77;30.10;;;3.10;93.10;;;;;;5077349;28;20383;-80
2021/01/03 10:18:59;;;;;;;42.37;27.47;;;3.30;93.30;;;;;;5081253;28;20198;-81
2021/01/03 10:21:33;;;;;;;45.37;29.97;;;3.20;93.30;;;;;;5078369;28;20758;-81
2021/01/03 10:24:03;;;;;;;43.33;30.97;;;3.20;93.20;;;;;;5084527;28;20198;-79
2021/01/03 10:26:33;;;;;;;40.80;24.07;;;3.20;93.40;;;;;;5087787;28;20215;-83
2021/01/03 10:29:03;;;;;;;41.93;25.97;;;3.30;93.40;;;;;;5105861;28;20186;-81
2021/01/03 10:31:39;;;;;;;42.33;28.63;;;3.20;93.30;;;;;;5106378;28;20245;-83
2021/01/03 10:34:07;;;;;;;37.20;24.73;;;3.30;93.40;;;;;;5101945;28;20233;-82
2021/01/03 10:36:36;;;;;;;49.07;30.93;;;3.30;93.30;;;;;;5096259;28;20641;-81
2021/01/03 10:39:07;;;;;;;45.80;31.70;;;3.30;93.30;;;;;;5105920;28;20185;-80
2021/01/03 10:41:36;;;;;;;46.63;30.73;;;3.40;93.30;;;;;;5103193;28;20243;-81
2021/01/03 10:44:09;;;;;;;46.37;30.53;;;3.40;93.20;;;;;;5110255;28;20212;-82
2021/01/03 10:46:37;;;;;;;45.50;31.50;;;3.40;93.30;;;;;;5062227;28;20608;-83
2021/01/03 10:49:07;;;;;;;47.77;30.37;;;3.40;93.20;;;;;;5096669;28;20178;-80
2021/01/03 10:51:37;;;;;;;40.40;26.77;;;3.50;93.10;;;;;;5106121;28;20355;-82
2021/01/03 10:54:05;;;;;;;41.10;28.40;;;3.70;93.20;;;;;;5105500;28;20269;-82
2021/01/03 10:56:32;;;;;;;43.43;29.13;;;3.50;93.00;;;;;;5088634;28;20179;-81
2021/01/03 10:59:01;;;;;;;45.33;30.43;;;3.50;93.10;;;;;;5103347;28;20407;-80
2021/01/03 11:01:29;;;;;;;44.37;27.57;;;3.50;93.10;;;;;;5103462;28;20613;-81
2021/01/03 11:03:58;;;;;;;47.10;30.53;;;3.40;93.10;;;;;;5103262;28;20197;-81
2021/01/03 11:06:39;;;;;;;47.17;28.53;;;3.40;93.20;;;;;;5105318;28;20229;-81
2021/01/03 11:09:12;;;;;;;41.53;28.10;;;3.50;93.20;;;;;;5107803;28;20383;-81
2021/01/03 11:11:40;;;;;;;46.63;30.47;;;3.50;93.20;;;;;;5106480;28;20204;-80
2021/01/03 11:14:07;;;;;;;45.60;28.33;;;3.40;93.10;;;;;;5104884;28;20239;-81
2021/01/03 11:16:38;;;;;;;48.90;30.90;;;3.50;93.30;;;;;;5104914;28;20489;-82
2021/01/03 11:19:07;;;;;;;42.60;25.03;;;3.50;93.30;;;;;;5095455;28;20195;-81
2021/01/03 11:21:34;;;;;;;43.60;26.93;;;3.50;93.30;;;;;;5096906;28;20223;-81
2021/01/03 11:24:04;;;;;;;44.63;29.47;;;3.50;93.20;;;;;;5098416;28;20741;-80
2021/01/03 11:26:33;;;;;;;46.07;26.60;;;3.40;93.20;;;;;;5097416;28;20626;-82
2021/01/03 11:29:02;;;;;;;45.07;28.03;;;3.50;93.20;;;;;;5089834;28;20218;-81
2021/01/03 11:31:38;;;;;;;45.00;28.80;;;3.50;93.10;;;;;;5088089;28;20210;-80
2021/01/03 11:34:08;;;;;;;45.70;25.90;;;3.40;93.10;;;;;;5097775;28;20205;-81
2021/01/03 11:36:37;;;;;;;41.83;24.67;;;3.50;93.20;;;;;;5100865;28;20206;-79
2021/01/03 11:39:07;;;;;;;46.80;29.67;;;3.40;93.20;;;;;;5088909;28;20247;-82
2021/01/03 11:41:35;;;;;;;48.33;29.73;;;3.40;93.20;;;;;;5096234;28;20228;-82
2021/01/03 11:44:03;;;;;;;45.07;28.40;;;3.50;93.40;;;;;;5097247;28;20388;-81
2021/01/03 11:46:31;;;;;;;47.57;29.40;;;3.50;93.40;;;;;;5088419;28;20267;-81
2021/01/03 11:48:59;;;;;;;46.70;26.50;;;3.40;93.30;;;;;;5101902;28;20244;-82
2021/01/03 11:51:28;;;;;;;49.17;30.97;;;3.50;93.40;;;;;;5095338;28;20556;-81
2021/01/03 11:53:55;;;;;;;48.80;28.43;;;3.40;93.40;;;;;;5089797;28;20666;-81
2021/01/03 11:56:23;;;;;;;46.43;25.57;;;3.40;93.50;;;;;;5084702;28;20207;-80
2021/01/03 11:58:51;;;;;;;49.73;30.00;;;3.50;93.50;;;;;;5066188;28;20199;-82
2021/01/03 12:01:20;;;;;;;49.67;31.33;;;3.50;93.40;;;;;;5075024;28;20197;-82
2021/01/03 12:03:49;;;;;;;49.60;29.53;;;3.50;93.40;;;;;;5080068;28;20271;-82
2021/01/03 12:06:21;;;;;;;38.77;21.77;;;3.50;93.40;;;;;;5070038;28;20234;-83
2021/01/03 12:08:50;;;;;;;35.20;19.37;;;3.50;93.30;;;;;;5063702;28;20212;-80
2021/01/03 12:11:20;;;;;;;31.83;19.80;;;3.50;93.30;;;;;;5082062;28;20203;-81
2021/01/03 12:13:49;;;;;;;38.33;23.03;;;3.40;93.20;;;;;;5068952;28;20304;-81
2021/01/03 12:16:19;;;;;;;50.20;29.67;;;3.40;93.20;;;;;;5079107;28;20280;-81
2021/01/03 12:18:47;;;;;;;33.70;20.67;;;3.30;93.30;;;;;;5098808;28;20204;-80
2021/01/03 12:21:25;;;;;;;40.27;23.70;;;3.40;93.20;;;;;;5092137;28;20197;-80
2021/01/03 12:23:53;;;;;;;54.37;33.10;;;3.30;93.10;;;;;;5092495;28;20196;-80
2021/01/03 12:26:22;;;;;;;59.13;33.33;;;3.40;93.30;;;;;;5081670;28;20283;-80
2021/01/03 12:28:50;;;;;;;39.77;22.50;;;3.40;93.30;;;;;;5068192;28;20244;-82
2021/01/03 12:31:18;;;;;;;33.63;21.33;;;3.40;93.20;;;;;;5063523;28;20227;-79
2021/01/03 12:33:45;;;;;;;58.73;32.47;;;3.50;93.10;;;;;;5075732;28;20225;-79
2021/01/03 12:36:13;;;;;;;56.03;33.20;;;3.30;93.20;;;;;;5065483;28;20209;-81
2021/01/03 12:38:41;;;;;;;44.47;26.33;;;3.20;93.30;;;;;;5062240;28;20201;-81
2021/01/03 12:41:09;;;;;;;48.50;29.60;;;3.20;93.20;;;;;;5072448;28;20499;-79
2021/01/03 12:43:36;;;;;;;51.63;34.33;;;3.20;93.20;;;;;;5062580;28;20198;-81
2021/01/03 12:46:04;;;;;;;58.60;35.40;;;3.20;93.30;;;;;;5073057;28;20250;-82
2021/01/03 12:48:35;;;;;;;52.40;34.60;;;3.20;93.30;;;;;;5068490;28;20200;-81
2021/01/03 12:51:03;;;;;;;53.33;33.53;;;3.10;93.40;;;;;;5075341;28;20194;-80
2021/01/03 12:53:38;;;;;;;35.47;21.30;;;3.10;93.30;;;;;;5079625;28;20662;-83
2021/01/03 12:56:07;;;;;;;29.63;19.70;;;3.20;93.40;;;;;;5067823;28;20204;-79
2021/01/03 12:58:34;;;;;;;37.87;23.77;;;3.10;93.30;;;;;;5068881;28;20288;-80
2021/01/03 13:01:02;;;;;;;51.07;27.97;;;3.10;93.30;;;;;;5070228;28;20202;-82